Time;durP1;ratioP1;P1;durP2;ratioP2;P2;SDS_P1;SDS_P2;PMS_P1;PMS_P2;Temp;Humidity;BMP_temperature;BMP_pressure;BME280_temperature;BME280_humidity;BME280_pressure;Samples;Min_cycle;Max_cycle;Signal;HPM_P1;HPM_P2
2023/01/14 00:00:50;;;;;;;14.90;3.90;;;8.40;91.80;;;;;;5007523;28;20436;-71
2023/01/14 00:03:17;;;;;;;14.73;4.20;;;8.40;92.10;;;;;;5004869;28;20436;-70
2023/01/14 00:05:43;;;;;;;12.48;4.80;;;8.30;91.90;;;;;;5008283;28;20433;-72
2023/01/14 00:08:10;;;;;;;15.05;4.45;;;8.40;91.70;;;;;;5021359;28;20890;-71
2023/01/14 00:10:38;;;;;;;14.85;4.85;;;8.30;91.60;;;;;;5006271;28;20443;-71
2023/01/14 00:13:05;;;;;;;12.32;4.20;;;8.30;91.90;;;;;;5004615;28;20447;-71
2023/01/14 00:15:32;;;;;;;14.88;5.72;;;8.20;92.20;;;;;;5007177;28;20439;-70
2023/01/14 00:17:58;;;;;;;13.32;4.50;;;8.20;92.20;;;;;;5009312;28;20481;-72
2023/01/14 00:20:27;;;;;;;11.52;4.50;;;8.10;92.30;;;;;;5016795;28;20431;-70
2023/01/14 00:22:54;;;;;;;12.48;3.60;;;8.00;92.40;;;;;;5008452;28;20421;-70
2023/01/14 00:25:21;;;;;;;10.57;4.20;;;8.00;92.70;;;;;;5008102;28;20923;-71
2023/01/14 00:27:52;;;;;;;11.77;3.90;;;8.00;92.70;;;;;;5007431;28;20422;-72
2023/01/14 00:30:19;;;;;;;14.30;4.80;;;8.00;92.80;;;;;;5006793;28;21142;-71
2023/01/14 00:32:45;;;;;;;15.93;5.40;;;7.90;93.00;;;;;;5007444;28;20436;-70
2023/01/14 00:35:12;;;;;;;13.40;4.63;;;7.90;93.00;;;;;;5012804;28;20950;-72
2023/01/14 00:37:39;;;;;;;11.00;4.55;;;7.80;93.30;;;;;;5006766;28;20499;-71
2023/01/14 00:40:07;;;;;;;14.88;4.20;;;7.90;93.20;;;;;;5005989;28;20447;-71
2023/01/14 00:42:33;;;;;;;15.38;5.38;;;7.80;93.40;;;;;;5007449;28;20424;-71
2023/01/14 00:45:02;;;;;;;11.52;4.50;;;7.70;93.80;;;;;;5010251;28;20462;-71
2023/01/14 00:47:28;;;;;;;12.65;4.55;;;7.70;94.10;;;;;;5010653;28;20436;-71
2023/01/14 00:49:55;;;;;;;12.45;4.28;;;7.70;93.70;;;;;;5013296;28;20438;-71
2023/01/14 00:52:22;;;;;;;13.00;4.50;;;7.70;93.60;;;;;;5005429;28;20810;-71
2023/01/14 00:54:48;;;;;;;15.88;4.50;;;7.70;93.90;;;;;;5009574;28;20439;-71
2023/01/14 00:57:16;;;;;;;13.85;4.13;;;7.70;93.80;;;;;;5009439;28;20451;-71
2023/01/14 00:59:42;;;;;;;13.10;4.30;;;7.70;94.10;;;;;;5009542;28;20518;-71
2023/01/14 01:02:10;;;;;;;10.43;4.10;;;7.70;93.80;;;;;;5013602;28;20443;-71
2023/01/14 01:04:37;;;;;;;13.02;4.53;;;7.70;94.00;;;;;;5019246;28;21139;-71
2023/01/14 01:07:05;;;;;;;12.20;3.50;;;7.70;93.90;;;;;;5010324;28;20442;-70
2023/01/14 01:09:32;;;;;;;16.73;4.50;;;7.80;93.50;;;;;;5010374;28;20439;-72
2023/01/14 01:11:58;;;;;;;12.52;4.38;;;7.90;93.70;;;;;;5009015;28;20444;-71
2023/01/14 01:14:25;;;;;;;12.40;4.03;;;7.90;93.60;;;;;;5008984;28;20447;-71
2023/01/14 01:16:52;;;;;;;11.38;4.18;;;7.90;93.90;;;;;;5018351;28;20889;-71
2023/01/14 01:19:20;;;;;;;13.75;4.20;;;7.90;93.10;;;;;;5021440;28;20415;-71
2023/01/14 01:21:47;;;;;;;12.43;4.15;;;8.00;93.40;;;;;;5029983;28;20415;-71
2023/01/14 01:24:13;;;;;;;10.90;4.05;;;8.00;92.80;;;;;;5023332;28;20428;-70
2023/01/14 01:26:40;;;;;;;8.30;3.85;;;8.00;92.60;;;;;;5009716;28;20440;-71
2023/01/14 01:29:07;;;;;;;13.52;4.25;;;8.00;92.60;;;;;;5011803;28;20440;-71
2023/01/14 01:31:33;;;;;;;12.27;3.58;;;8.00;92.70;;;;;;5025603;28;20812;-71
2023/01/14 01:34:00;;;;;;;11.45;4.15;;;8.00;92.20;;;;;;5020732;28;20435;-70
2023/01/14 01:36:29;;;;;;;13.97;4.60;;;8.10;92.40;;;;;;5030219;28;20421;-71
2023/01/14 01:38:56;;;;;;;9.35;3.72;;;8.10;92.60;;;;;;5027250;28;20418;-71
2023/01/14 01:41:24;;;;;;;11.48;4.10;;;8.10;92.10;;;;;;5017976;28;20437;-70
2023/01/14 01:44:00;;;;;;;12.13;4.05;;;8.10;91.90;;;;;;5023729;28;20430;-70
2023/01/14 01:46:27;;;;;;;11.38;4.18;;;8.10;91.90;;;;;;5009005;28;20534;-70
2023/01/14 01:48:54;;;;;;;10.48;3.30;;;8.10;91.80;;;;;;5017436;28;20960;-71
2023/01/14 01:51:25;;;;;;;12.50;3.90;;;8.10;91.50;;;;;;5009444;28;20432;-71
2023/01/14 01:53:57;;;;;;;12.98;3.50;;;8.10;91.30;;;;;;5007217;28;21005;-71
2023/01/14 01:56:28;;;;;;;13.60;4.18;;;8.20;91.10;;;;;;5020650;28;20460;-71
2023/01/14 01:58:57;;;;;;;10.15;3.90;;;8.20;91.00;;;;;;5020655;28;20440;-71
2023/01/14 02:01:24;;;;;;;14.38;4.60;;;8.20;91.30;;;;;;5009662;28;20435;-71
2023/01/14 02:03:52;;;;;;;10.10;3.55;;;8.20;90.90;;;;;;5014994;28;20441;-71
2023/01/14 02:06:19;;;;;;;12.07;3.67;;;8.20;91.00;;;;;;5013644;28;20431;-70
2023/01/14 02:08:49;;;;;;;11.70;3.45;;;8.20;91.10;;;;;;5009105;28;20417;-71
2023/01/14 02:11:49;;;;;;;9.73;3.33;;;8.10;90.60;;;;;;5010650;28;20509;-71
2023/01/14 02:14:30;;;;;;;12.75;3.80;;;8.20;90.60;;;;;;5003717;28;20961;-71
2023/01/14 02:17:07;;;;;;;9.52;3.00;;;8.10;90.70;;;;;;5009351;28;20409;-72
2023/01/14 02:19:52;;;;;;;14.82;3.80;;;8.10;90.90;;;;;;5015453;28;21231;-70
2023/01/14 02:22:36;;;;;;;9.90;3.60;;;8.00;91.10;;;;;;5002084;28;20443;-70
2023/01/14 02:25:34;;;;;;;14.25;3.72;;;8.00;91.60;;;;;;5010443;28;20464;-70
2023/01/14 02:28:17;;;;;;;12.05;3.72;;;7.90;91.90;;;;;;5008127;28;20800;-71
2023/01/14 02:30:59;;;;;;;12.40;4.70;;;7.90;91.80;;;;;;5020989;28;20445;-71
2023/01/14 02:33:35;;;;;;;11.53;3.83;;;8.00;92.00;;;;;;5002730;28;20469;-71
2023/01/14 02:36:09;;;;;;;12.48;3.80;;;7.90;91.60;;;;;;5019272;28;20453;-71
2023/01/14 02:38:44;;;;;;;13.20;3.60;;;7.90;91.80;;;;;;5028482;28;20585;-71
2023/01/14 02:41:18;;;;;;;13.63;4.60;;;7.90;91.50;;;;;;5027612;28;20491;-71
2023/01/14 02:44:07;;;;;;;17.15;4.65;;;7.90;91.40;;;;;;5011884;28;20537;-71
2023/01/14 02:46:38;;;;;;;16.48;4.60;;;7.90;91.60;;;;;;5008524;28;20901;-71
2023/01/14 02:49:08;;;;;;;12.00;3.28;;;7.80;91.90;;;;;;5011093;28;20480;-70
2023/01/14 02:51:36;;;;;;;10.15;3.45;;;7.70;91.70;;;;;;5027349;28;20433;-70
2023/01/14 02:54:03;;;;;;;12.20;3.60;;;7.60;91.90;;;;;;5011217;28;21180;-71
2023/01/14 02:56:31;;;;;;;11.30;3.90;;;7.60;92.10;;;;;;5006917;28;20412;-71
2023/01/14 02:59:16;;;;;;;13.33;4.60;;;7.50;92.30;;;;;;5007617;28;20785;-72
2023/01/14 03:02:12;;;;;;;10.50;3.30;;;7.50;92.40;;;;;;5007894;28;20447;-71
2023/01/14 03:04:51;;;;;;;13.15;4.00;;;7.50;92.00;;;;;;5015028;28;20464;-71
2023/01/14 03:07:22;;;;;;;13.02;4.10;;;7.50;92.20;;;;;;5011804;28;20482;-71
2023/01/14 03:09:58;;;;;;;10.45;3.30;;;7.50;92.60;;;;;;5016162;28;20465;-71
2023/01/14 03:12:35;;;;;;;9.77;3.67;;;7.50;92.90;;;;;;5025800;28;20426;-71
2023/01/14 03:15:13;;;;;;;9.90;3.42;;;7.40;92.70;;;;;;5012087;28;20436;-71
2023/01/14 03:17:46;;;;;;;12.35;3.45;;;7.30;93.30;;;;;;5019848;28;20482;-71
2023/01/14 03:20:17;;;;;;;9.52;3.30;;;7.20;93.80;;;;;;5009462;28;20438;-71
2023/01/14 03:22:45;;;;;;;10.80;3.60;;;7.10;94.40;;;;;;5010442;28;20437;-71
2023/01/14 03:25:16;;;;;;;13.00;4.10;;;7.10;94.00;;;;;;5008097;28;20431;-71
2023/01/14 03:27:45;;;;;;;10.48;3.35;;;7.00;94.30;;;;;;5008025;28;20436;-71
2023/01/14 03:30:16;;;;;;;11.37;3.40;;;7.00;94.40;;;;;;5006910;28;20506;-70
2023/01/14 03:32:48;;;;;;;12.80;3.10;;;7.00;94.60;;;;;;5015474;28;20440;-70
2023/01/14 03:35:19;;;;;;;9.37;3.23;;;7.00;94.70;;;;;;4991363;28;20847;-70
2023/01/14 03:37:51;;;;;;;8.10;2.87;;;7.00;94.40;;;;;;5007434;28;20443;-71
2023/01/14 03:40:20;;;;;;;8.15;3.20;;;7.00;94.30;;;;;;5007339;28;20917;-70
2023/01/14 03:42:51;;;;;;;12.10;4.13;;;7.00;94.70;;;;;;5006290;28;20424;-71
2023/01/14 03:45:22;;;;;;;11.82;4.03;;;7.00;95.00;;;;;;5006239;28;20445;-71
2023/01/14 03:47:51;;;;;;;11.05;4.10;;;6.90;94.70;;;;;;5016487;28;20422;-70
2023/01/14 03:50:19;;;;;;;12.82;3.67;;;7.00;94.70;;;;;;5019509;28;20440;-70
2023/01/14 03:53:07;;;;;;;15.25;4.43;;;7.00;94.60;;;;;;5010417;28;20415;-71
2023/01/14 03:55:39;;;;;;;11.38;3.30;;;7.00;94.70;;;;;;5012461;28;20440;-70
2023/01/14 03:58:14;;;;;;;8.35;2.85;;;7.00;94.30;;;;;;5009171;28;20424;-70
2023/01/14 04:00:48;;;;;;;11.75;3.90;;;6.90;94.70;;;;;;5007782;28;20818;-71
2023/01/14 04:03:16;;;;;;;12.85;3.53;;;6.90;94.30;;;;;;5010780;28;20480;-71
2023/01/14 04:05:43;;;;;;;10.70;3.70;;;6.90;94.30;;;;;;5017215;28;20435;-70
2023/01/14 04:08:11;;;;;;;11.55;3.75;;;6.90;94.30;;;;;;5007207;28;20431;-71
2023/01/14 04:10:37;;;;;;;14.25;3.88;;;6.90;94.50;;;;;;5006207;28;20447;-71
2023/01/14 04:15:45;;;;;;;11.40;3.50;;;6.90;94.40;;;;;;4981390;28;20405;-71
2023/01/14 04:18:12;;;;;;;11.17;4.00;;;6.90;94.40;;;;;;5007615;28;20878;-71
2023/01/14 04:20:40;;;;;;;11.95;3.78;;;6.90;94.90;;;;;;5010293;28;20425;-71
2023/01/14 04:23:06;;;;;;;12.77;4.60;;;6.90;94.80;;;;;;5034851;23;20430;-68
2023/01/14 04:25:33;;;;;;;9.50;2.90;;;6.90;94.90;;;;;;5028160;28;20439;-69
2023/01/14 04:28:00;;;;;;;10.80;3.42;;;6.90;94.80;;;;;;5029550;28;20430;-73
2023/01/14 04:30:27;;;;;;;12.30;4.28;;;6.90;94.80;;;;;;5020763;28;20434;-66
2023/01/14 04:32:53;;;;;;;11.82;3.35;;;6.90;94.80;;;;;;5032005;28;21136;-69
2023/01/14 04:35:20;;;;;;;8.98;3.50;;;6.90;94.90;;;;;;5049827;28;20417;-69
2023/01/14 04:37:50;;;;;;;10.30;3.20;;;6.90;94.70;;;;;;5050009;28;20433;-69
2023/01/14 04:40:17;;;;;;;10.75;3.88;;;6.90;94.60;;;;;;5050234;28;20436;-69
2023/01/14 04:42:44;;;;;;;9.63;3.50;;;6.90;94.90;;;;;;5050936;28;20436;-68
2023/01/14 04:45:11;;;;;;;10.18;3.80;;;6.90;94.80;;;;;;5053018;28;20433;-68
2023/01/14 04:47:39;;;;;;;10.80;3.70;;;6.90;94.70;;;;;;5051942;28;20445;-68
2023/01/14 04:52:48;;;;;;;11.38;3.30;;;6.80;95.10;;;;;;5045349;28;20482;-67
2023/01/14 04:55:15;;;;;;;8.57;3.40;;;6.80;94.80;;;;;;5053826;28;20416;-67
2023/01/14 04:57:42;;;;;;;10.13;3.70;;;6.90;94.90;;;;;;5048430;28;20425;-67
2023/01/14 05:00:10;;;;;;;10.35;2.92;;;6.90;94.90;;;;;;5040769;28;20442;-69
2023/01/14 05:02:37;;;;;;;7.97;3.05;;;6.90;94.70;;;;;;5048948;28;20421;-68
2023/01/14 05:05:04;;;;;;;10.43;3.22;;;6.90;94.90;;;;;;5049459;28;20417;-68
2023/01/14 05:07:31;;;;;;;8.90;2.60;;;6.90;95.00;;;;;;5047351;28;20436;-68
2023/01/14 05:09:59;;;;;;;7.95;3.40;;;6.90;94.80;;;;;;5048884;28;20492;-68
2023/01/14 05:12:26;;;;;;;8.55;3.50;;;6.90;94.80;;;;;;5046505;28;20523;-68
2023/01/14 05:14:52;;;;;;;11.23;2.90;;;6.90;95.20;;;;;;5044146;28;20433;-68
2023/01/14 05:17:19;;;;;;;11.20;3.70;;;6.90;95.20;;;;;;5048717;28;20418;-69
2023/01/14 05:19:46;;;;;;;11.00;3.20;;;6.80;95.60;;;;;;5048036;28;20433;-68
2023/01/14 05:22:13;;;;;;;10.15;3.28;;;6.80;96.10;;;;;;5040576;28;20413;-69
2023/01/14 05:24:39;;;;;;;8.25;3.63;;;6.70;96.00;;;;;;5049213;28;20910;-69
2023/01/14 05:27:07;;;;;;;9.95;3.05;;;6.70;96.40;;;;;;5052641;28;20433;-67
2023/01/14 05:29:34;;;;;;;10.60;2.85;;;6.70;96.80;;;;;;5061054;28;20457;-67
2023/01/14 05:32:01;;;;;;;8.30;3.22;;;6.70;96.60;;;;;;5065407;28;20424;-71
2023/01/14 05:34:30;;;;;;;11.05;3.17;;;6.70;96.80;;;;;;5062875;28;20413;-67
2023/01/14 05:36:57;;;;;;;9.07;3.30;;;6.70;96.40;;;;;;5063717;28;20421;-69
2023/01/14 05:39:24;;;;;;;11.18;3.20;;;6.70;95.90;;;;;;5064154;28;20413;-66
2023/01/14 05:47:21;;;;;;;9.82;3.50;;;6.80;95.60;;;;;;5049501;28;20429;-66
2023/01/14 05:49:48;;;;;;;9.65;3.28;;;6.80;95.70;;;;;;5056831;28;20409;-68
2023/01/14 05:52:14;;;;;;;8.73;2.80;;;6.80;95.50;;;;;;5032838;28;20507;-69
2023/01/14 05:54:41;;;;;;;11.50;4.07;;;6.80;95.60;;;;;;5031614;28;20470;-67
2023/01/14 05:57:13;;;;;;;8.40;2.50;;;6.80;95.50;;;;;;5042367;28;20429;-68
2023/01/14 05:59:41;;;;;;;6.93;2.95;;;6.90;95.40;;;;;;5050752;28;20543;-67
2023/01/14 06:07:37;;;;;;;11.77;3.20;;;7.00;95.50;;;;;;5047341;28;20444;-68
2023/01/14 06:10:05;;;;;;;8.25;2.83;;;7.00;95.10;;;;;;5056970;28;20433;-66
2023/01/14 06:12:57;;;;;;;9.82;2.90;;;7.10;94.80;;;;;;5045878;28;20433;-69
2023/01/14 06:15:25;;;;;;;11.53;3.20;;;7.10;94.50;;;;;;5044895;28;20548;-69
2023/01/14 06:17:58;;;;;;;11.47;3.17;;;7.20;94.10;;;;;;5049885;28;20541;-68
2023/01/14 06:20:25;;;;;;;9.00;3.90;;;7.30;93.70;;;;;;5052165;28;20421;-69
2023/01/14 06:22:54;;;;;;;10.23;3.67;;;7.30;93.70;;;;;;5047204;28;20429;-69
2023/01/14 06:25:21;;;;;;;12.10;3.30;;;7.30;94.00;;;;;;5047870;28;20435;-66
2023/01/14 06:27:47;;;;;;;11.70;3.20;;;7.30;93.90;;;;;;5045894;28;20433;-69
2023/01/14 06:30:14;;;;;;;8.40;2.90;;;7.40;93.70;;;;;;5049970;28;20417;-68
2023/01/14 06:32:43;;;;;;;8.90;3.10;;;7.40;93.50;;;;;;5047600;28;20431;-67
2023/01/14 06:35:10;;;;;;;7.05;2.90;;;7.40;93.10;;;;;;5047226;28;20436;-67
2023/01/14 06:37:36;;;;;;;9.00;2.95;;;7.40;93.30;;;;;;5047437;28;20414;-68
2023/01/14 06:40:03;;;;;;;6.53;2.92;;;7.50;93.00;;;;;;5045970;28;21064;-68
2023/01/14 06:42:30;;;;;;;6.75;3.00;;;7.50;93.10;;;;;;5048970;28;20433;-69
2023/01/14 06:44:57;;;;;;;8.90;3.03;;;7.50;92.60;;;;;;5049632;28;20788;-68
2023/01/14 06:47:24;;;;;;;10.07;3.40;;;7.50;92.60;;;;;;5054840;28;20452;-66
2023/01/14 06:49:52;;;;;;;6.60;2.97;;;7.60;92.40;;;;;;5049335;28;20440;-67
2023/01/14 06:52:18;;;;;;;10.25;2.85;;;7.60;92.50;;;;;;5057017;28;21013;-67
2023/01/14 06:54:47;;;;;;;9.35;3.00;;;7.60;92.30;;;;;;5040183;28;20433;-67
2023/01/14 06:57:13;;;;;;;8.90;2.67;;;7.60;92.10;;;;;;5045902;28;20521;-68
2023/01/14 06:59:40;;;;;;;9.20;3.30;;;7.60;92.60;;;;;;5045677;28;20440;-67
2023/01/14 07:02:11;;;;;;;8.23;2.92;;;7.60;93.20;;;;;;5047590;28;20435;-67
2023/01/14 07:04:38;;;;;;;7.20;2.85;;;7.50;93.70;;;;;;5059640;28;20451;-70
2023/01/14 07:07:06;;;;;;;8.90;3.90;;;7.50;94.20;;;;;;5048144;28;20433;-69
2023/01/14 07:09:33;;;;;;;7.40;3.20;;;7.40;95.30;;;;;;5052053;28;20571;-69
2023/01/14 07:12:00;;;;;;;8.18;2.70;;;7.30;95.50;;;;;;5046297;28;20516;-67
2023/01/14 07:14:26;;;;;;;10.00;3.40;;;7.30;95.40;;;;;;5048947;28;20409;-70
2023/01/14 07:16:53;;;;;;;9.27;3.33;;;7.20;96.60;;;;;;5047577;28;20425;-68
2023/01/14 07:19:20;;;;;;;8.98;2.90;;;7.20;96.60;;;;;;5049722;28;20417;-66
2023/01/14 07:21:47;;;;;;;10.27;3.23;;;7.20;96.90;;;;;;5046170;28;20541;-65
2023/01/14 07:24:15;;;;;;;9.52;3.10;;;7.20;96.80;;;;;;5042333;28;20432;-68
2023/01/14 07:26:42;;;;;;;5.65;2.60;;;7.20;98.50;;;;;;5042998;28;20953;-69
2023/01/14 07:29:08;;;;;;;8.05;3.30;;;7.20;97.40;;;;;;5045183;28;20421;-68
2023/01/14 07:31:35;;;;;;;7.05;2.97;;;7.20;98.30;;;;;;5044777;28;20752;-65
2023/01/14 07:34:02;;;;;;;11.43;3.38;;;7.10;99.90;;;;;;5042624;28;20444;-69
2023/01/14 07:36:29;;;;;;;8.30;3.22;;;7.10;99.90;;;;;;5045802;28;20421;-67
2023/01/14 07:38:55;;;;;;;9.40;3.40;;;7.10;99.90;;;;;;5045036;28;20536;-69
2023/01/14 07:41:23;;;;;;;7.97;3.38;;;7.10;99.90;;;;;;5052412;28;20457;-67
2023/01/14 07:43:50;;;;;;;9.10;4.07;;;7.00;99.90;;;;;;5057129;28;20409;-68
2023/01/14 07:46:18;;;;;;;9.30;3.60;;;7.00;99.90;;;;;;5059007;28;20433;-70
2023/01/14 07:48:45;;;;;;;11.10;3.80;;;6.90;99.90;;;;;;5058137;28;20452;-71
2023/01/14 07:51:15;;;;;;;13.57;4.00;;;6.90;99.90;;;;;;5064380;28;20510;-68
2023/01/14 07:53:42;;;;;;;10.02;4.68;;;6.80;99.90;;;;;;5060053;28;20417;-70
2023/01/14 07:56:09;;;;;;;10.32;3.75;;;6.80;99.90;;;;;;5055601;28;20472;-68
2023/01/14 07:58:37;;;;;;;11.32;4.00;;;6.80;99.90;;;;;;5057176;28;20425;-72
2023/01/14 08:01:06;;;;;;;8.82;3.60;;;6.70;99.90;;;;;;5061197;28;20452;-71
2023/01/14 08:03:32;;;;;;;11.95;4.00;;;6.70;99.90;;;;;;5052195;28;20525;-71
2023/01/14 08:06:01;;;;;;;13.82;3.80;;;6.60;99.90;;;;;;5050862;28;20475;-70
2023/01/14 08:08:28;;;;;;;10.50;4.00;;;6.60;99.90;;;;;;5062078;28;20945;-71
2023/01/14 08:10:55;;;;;;;11.02;3.67;;;6.60;99.90;;;;;;5060519;28;20434;-75
2023/01/14 08:13:22;;;;;;;9.30;4.10;;;6.60;99.90;;;;;;5072160;28;20408;-68
2023/01/14 08:15:55;;;;;;;12.38;4.22;;;6.60;99.90;;;;;;5062474;28;20435;-69
2023/01/14 08:18:23;;;;;;;9.85;3.90;;;6.60;99.90;;;;;;5058293;28;20426;-68
2023/01/14 08:20:57;;;;;;;12.45;5.18;;;6.60;99.90;;;;;;5061504;28;20509;-70
2023/01/14 08:23:24;;;;;;;9.75;3.72;;;6.60;99.90;;;;;;5050972;28;20445;-70
2023/01/14 08:25:51;;;;;;;9.68;3.50;;;6.70;99.90;;;;;;5053093;28;20425;-70
2023/01/14 08:28:18;;;;;;;8.48;3.70;;;6.70;99.90;;;;;;5059493;28;20439;-73
2023/01/14 08:30:44;;;;;;;11.07;4.20;;;6.80;99.90;;;;;;5059927;28;20456;-69
2023/01/14 08:33:12;;;;;;;8.90;3.97;;;6.80;99.90;;;;;;5061364;28;20433;-69
2023/01/14 08:35:40;;;;;;;11.32;4.20;;;6.80;99.90;;;;;;5060451;28;20441;-71
2023/01/14 08:38:07;;;;;;;8.18;4.03;;;6.80;99.90;;;;;;5055502;28;20433;-71
2023/01/14 08:40:34;;;;;;;8.20;3.40;;;6.90;99.90;;;;;;5049896;28;20444;-70
2023/01/14 08:43:01;;;;;;;7.32;2.83;;;7.00;99.90;;;;;;5049781;28;20882;-71
2023/01/14 08:45:29;;;;;;;7.72;2.80;;;7.10;99.90;;;;;;5053756;28;20448;-70
2023/01/14 08:47:57;;;;;;;7.57;2.50;;;7.10;99.90;;;;;;5051335;28;20440;-70
2023/01/14 08:50:27;;;;;;;5.70;2.80;;;7.20;99.90;;;;;;5055709;28;20428;-69
2023/01/14 08:52:53;;;;;;;4.50;1.85;;;7.30;99.90;;;;;;5058239;28;20425;-71
2023/01/14 08:55:20;;;;;;;4.40;1.88;;;7.40;99.90;;;;;;5056276;28;20436;-71
2023/01/14 08:57:47;;;;;;;3.25;1.40;;;7.50;99.90;;;;;;5057318;28;20889;-72
2023/01/14 09:00:15;;;;;;;4.53;1.58;;;7.60;99.90;;;;;;5051414;28;20442;-71
2023/01/14 09:02:42;;;;;;;2.95;1.80;;;7.60;99.90;;;;;;5058192;28;20831;-72
2023/01/14 09:05:09;;;;;;;5.10;1.50;;;7.70;99.90;;;;;;5059047;28;20452;-72
2023/01/14 09:18:31;;;;;;;2.25;1.15;;;7.90;99.90;;;;;;5056776;28;20408;-72
2023/01/14 09:20:58;;;;;;;3.10;1.35;;;8.00;99.90;;;;;;5058740;28;20472;-72
2023/01/14 09:23:26;;;;;;;2.10;1.20;;;8.00;99.90;;;;;;5059984;28;20440;-71
2023/01/14 09:25:53;;;;;;;3.30;1.50;;;8.00;99.70;;;;;;5058379;28;20440;-72
2023/01/14 09:28:20;;;;;;;2.03;1.30;;;8.00;99.70;;;;;;5061594;28;20433;-70
2023/01/14 09:30:47;;;;;;;3.03;1.63;;;8.10;99.70;;;;;;5056594;28;20441;-71
2023/01/14 09:33:14;;;;;;;2.80;1.70;;;8.10;99.30;;;;;;5050772;28;20437;-73
2023/01/14 09:35:40;;;;;;;2.15;1.30;;;8.20;99.10;;;;;;5048717;28;20436;-71
2023/01/14 09:38:07;;;;;;;2.28;1.33;;;8.20;98.60;;;;;;5046344;28;20471;-72
2023/01/14 09:40:38;;;;;;;2.80;1.30;;;8.20;98.90;;;;;;5047974;28;20433;-74
2023/01/14 09:43:06;;;;;;;3.03;1.30;;;8.20;98.50;;;;;;5046987;28;20547;-74
2023/01/14 09:45:34;;;;;;;2.95;2.15;;;8.30;99.10;;;;;;5042180;28;20448;-69
2023/01/14 09:48:06;;;;;;;2.22;1.58;;;8.30;99.20;;;;;;5046725;28;20436;-74
2023/01/14 09:50:41;;;;;;;1.63;1.10;;;8.50;98.80;;;;;;5048265;28;20420;-75
2023/01/14 09:53:22;;;;;;;2.10;1.10;;;8.50;97.90;;;;;;5047928;28;20832;-74
2023/01/14 09:55:55;;;;;;;1.80;1.15;;;8.50;97.90;;;;;;5046076;28;20496;-73
2023/01/14 09:58:29;;;;;;;3.03;1.20;;;8.60;97.70;;;;;;5044373;28;20912;-74
2023/01/14 10:01:10;;;;;;;2.60;1.10;;;8.60;98.00;;;;;;5049559;28;20436;-73
2023/01/14 10:03:45;;;;;;;2.03;1.00;;;8.60;97.70;;;;;;5039890;28;20500;-74
2023/01/14 10:06:15;;;;;;;1.60;0.93;;;8.60;97.90;;;;;;5053658;28;20433;-73
2023/01/14 10:08:46;;;;;;;2.90;1.10;;;8.60;98.20;;;;;;5045650;28;20433;-74
2023/01/14 10:11:15;;;;;;;3.38;1.00;;;8.70;97.60;;;;;;5037781;28;20440;-73
2023/01/14 10:13:47;;;;;;;1.63;1.10;;;8.70;97.80;;;;;;5042196;28;20433;-72
2023/01/14 10:16:18;;;;;;;2.42;1.00;;;8.70;98.10;;;;;;5048395;28;20938;-72
2023/01/14 10:18:52;;;;;;;1.70;1.20;;;8.70;98.00;;;;;;5045941;28;20429;-72
2023/01/14 10:21:28;;;;;;;2.65;1.17;;;8.70;98.20;;;;;;5040086;28;20470;-71
2023/01/14 10:23:55;;;;;;;1.73;0.80;;;8.80;98.30;;;;;;5053277;28;20424;-73
2023/01/14 10:26:26;;;;;;;1.88;1.20;;;8.80;98.40;;;;;;5053928;28;20555;-70
2023/01/14 10:28:58;;;;;;;1.50;1.10;;;8.90;97.80;;;;;;5053164;28;20489;-71
2023/01/14 10:31:28;;;;;;;2.78;1.30;;;8.90;98.20;;;;;;5050811;28;21081;-71
2023/01/14 10:33:55;;;;;;;2.70;1.65;;;8.90;98.10;;;;;;5052777;28;20440;-70
2023/01/14 10:36:24;;;;;;;2.35;1.40;;;8.90;98.10;;;;;;5056155;28;20472;-72
2023/01/14 10:38:51;;;;;;;2.60;1.20;;;8.90;98.80;;;;;;5058162;28;20433;-71
2023/01/14 10:41:48;;;;;;;3.00;1.20;;;8.90;97.70;;;;;;5055471;28;20823;-69
2023/01/14 10:44:16;;;;;;;2.58;1.33;;;9.00;97.90;;;;;;5059286;28;20421;-71
2023/01/14 10:46:45;;;;;;;2.25;1.30;;;9.00;98.30;;;;;;5054314;28;20433;-70
2023/01/14 10:49:18;;;;;;;3.60;1.40;;;8.90;99.60;;;;;;5061596;28;20979;-68
2023/01/14 10:51:49;;;;;;;3.10;1.60;;;8.80;99.90;;;;;;5055251;28;20446;-70
2023/01/14 10:54:17;;;;;;;3.13;1.45;;;8.70;99.90;;;;;;5062210;28;20417;-70
2023/01/14 10:56:49;;;;;;;4.03;1.90;;;8.60;99.90;;;;;;5045032;28;20436;-70
2023/01/14 10:59:39;;;;;;;2.83;1.45;;;8.50;99.90;;;;;;5062464;28;20460;-70
2023/01/14 11:02:18;;;;;;;2.30;1.30;;;8.40;99.90;;;;;;5049934;28;20898;-74
2023/01/14 11:04:45;;;;;;;2.00;1.30;;;8.40;99.90;;;;;;5049955;28;20838;-73
2023/01/14 11:07:20;;;;;;;2.85;1.30;;;8.40;99.90;;;;;;5051205;28;20460;-73
2023/01/14 11:09:47;;;;;;;3.88;1.40;;;8.40;99.90;;;;;;5056019;28;20437;-70
2023/01/14 11:12:27;;;;;;;4.07;1.95;;;8.40;99.90;;;;;;5059783;28;20440;-72
2023/01/14 11:14:55;;;;;;;3.30;1.27;;;8.40;99.90;;;;;;5049078;28;20447;-72
2023/01/14 11:17:23;;;;;;;4.53;1.45;;;8.30;99.90;;;;;;5043491;28;20843;-74
2023/01/14 11:19:50;;;;;;;2.80;1.43;;;8.40;99.90;;;;;;5044478;28;20499;-75
2023/01/14 11:22:18;;;;;;;3.45;1.30;;;8.30;99.90;;;;;;5061997;28;20436;-73
2023/01/14 11:24:52;;;;;;;3.38;1.60;;;8.30;99.90;;;;;;5063087;28;20425;-77
2023/01/14 11:27:22;;;;;;;3.95;1.60;;;8.30;99.90;;;;;;5060333;28;20496;-73
2023/01/14 11:29:52;;;;;;;2.10;1.40;;;8.30;99.90;;;;;;5059168;28;20446;-73
2023/01/14 11:32:24;;;;;;;3.80;1.50;;;8.30;99.90;;;;;;5051878;28;20465;-73
2023/01/14 11:34:54;;;;;;;2.05;1.20;;;8.30;99.90;;;;;;5046603;28;20473;-73
2023/01/14 11:37:23;;;;;;;2.92;1.40;;;8.30;99.90;;;;;;5043958;28;20444;-74
2023/01/14 11:39:53;;;;;;;3.42;1.30;;;8.30;99.90;;;;;;5044890;28;20441;-74
2023/01/14 11:42:31;;;;;;;2.97;1.23;;;8.30;99.90;;;;;;5038918;28;20775;-73
2023/01/14 11:44:59;;;;;;;2.08;1.00;;;8.30;99.90;;;;;;5040521;28;21005;-74
2023/01/14 11:47:29;;;;;;;2.55;1.10;;;8.30;99.90;;;;;;5057169;28;20439;-72
2023/01/14 11:50:21;;;;;;;2.50;1.20;;;8.30;99.90;;;;;;5055434;28;20510;-71
2023/01/14 11:53:00;;;;;;;2.72;1.60;;;8.30;99.90;;;;;;5057152;28;20439;-73
2023/01/14 11:55:28;;;;;;;2.10;1.13;;;8.30;99.90;;;;;;5055777;28;20440;-70
2023/01/14 11:58:02;;;;;;;3.63;1.10;;;8.30;99.90;;;;;;5057020;28;20447;-74
2023/01/14 12:00:31;;;;;;;2.50;1.60;;;8.40;99.90;;;;;;5042931;28;20448;-72
2023/01/14 12:03:04;;;;;;;3.40;1.20;;;8.40;99.90;;;;;;5069274;22;20432;-75
2023/01/14 12:05:32;;;;;;;3.45;1.30;;;8.40;99.90;;;;;;4997819;28;20481;-76
2023/01/14 12:08:05;;;;;;;3.35;1.30;;;8.40;99.90;;;;;;5005380;28;20433;-75
2023/01/14 12:10:36;;;;;;;2.50;1.40;;;8.40;99.90;;;;;;4998833;28;20444;-75
2023/01/14 12:18:49;;;;;;;3.08;1.40;;;8.50;99.90;;;;;;4998273;28;20455;-72
2023/01/14 12:21:21;;;;;;;3.63;1.30;;;8.50;99.90;;;;;;4991361;28;20430;-71
2023/01/14 12:23:55;;;;;;;2.80;1.60;;;8.50;99.90;;;;;;4992593;28;20472;-71
2023/01/14 12:26:26;;;;;;;2.85;1.10;;;8.50;99.90;;;;;;4997959;28;21102;-70
2023/01/14 12:28:58;;;;;;;3.83;1.00;;;8.50;99.90;;;;;;4994797;28;20486;-71
2023/01/14 12:31:30;;;;;;;2.80;1.40;;;8.60;99.90;;;;;;4995718;28;20437;-73
2023/01/14 12:34:04;;;;;;;1.55;0.80;;;8.60;99.90;;;;;;4990842;28;20864;-71
2023/01/14 12:36:40;;;;;;;1.60;0.98;;;8.60;99.90;;;;;;4999024;28;21146;-72
2023/01/14 12:48:06;;;;;;;2.20;1.30;;;8.60;99.90;;;;;;5002750;28;20439;-72
2023/01/14 12:50:35;;;;;;;2.20;1.30;;;8.60;99.90;;;;;;5003467;28;20437;-74
2023/01/14 12:53:03;;;;;;;2.10;1.00;;;8.50;99.90;;;;;;5008067;28;20508;-73
2023/01/14 12:55:34;;;;;;;2.00;1.07;;;8.60;99.90;;;;;;5003187;28;20532;-72
2023/01/14 12:58:04;;;;;;;2.42;1.52;;;8.60;99.90;;;;;;4997067;28;20442;-65
2023/01/14 13:00:34;;;;;;;2.70;1.50;;;8.60;99.90;;;;;;4996580;28;20439;-63
2023/01/14 13:03:04;;;;;;;1.60;0.80;;;8.80;99.90;;;;;;4994838;28;20908;-72
2023/01/14 13:05:37;;;;;;;1.63;1.20;;;8.80;99.90;;;;;;5000407;28;20442;-63
2023/01/14 13:08:07;;;;;;;2.40;1.10;;;8.80;99.90;;;;;;5002233;28;20837;-63
2023/01/14 13:10:36;;;;;;;1.88;1.10;;;8.90;99.90;;;;;;4992090;28;20430;-62
2023/01/14 13:13:17;;;;;;;2.25;1.00;;;9.00;99.90;;;;;;5004597;28;20444;-75
2023/01/14 13:15:44;;;;;;;1.40;0.80;;;8.90;99.90;;;;;;5000064;28;20490;-75
2023/01/14 13:18:44;;;;;;;4.10;2.60;;;8.90;99.90;;;;;;5006103;28;20420;-68
2023/01/14 13:21:12;;;;;;;1.20;0.80;;;8.90;99.90;;;;;;4998221;28;20442;-76
2023/01/14 13:24:04;;;;;;;1.95;1.00;;;9.10;99.90;;;;;;4997934;28;20438;-76
2023/01/14 13:26:57;;;;;;;1.50;1.00;;;9.00;99.90;;;;;;4994691;28;20538;-77
2023/01/14 13:29:27;;;;;;;1.38;0.80;;;8.90;99.90;;;;;;4991445;28;20787;-77
2023/01/14 13:31:55;;;;;;;1.00;0.70;;;8.90;99.90;;;;;;5000077;28;20425;-77
2023/01/14 13:35:01;;;;;;;1.57;1.00;;;8.80;99.90;;;;;;4995900;28;20431;-77
2023/01/14 13:37:42;;;;;;;2.05;1.15;;;8.70;99.90;;;;;;4996530;28;20426;-76
2023/01/14 13:40:18;;;;;;;1.40;0.70;;;8.70;99.90;;;;;;5003867;28;20471;-77
2023/01/14 13:42:45;;;;;;;1.10;0.90;;;8.70;99.90;;;;;;4995937;28;20914;-75
2023/01/14 13:45:26;;;;;;;1.60;0.60;;;8.80;99.90;;;;;;5010038;28;20427;-74
2023/01/14 13:47:55;;;;;;;1.80;0.80;;;8.80;99.90;;;;;;4997251;28;21143;-74
2023/01/14 13:50:25;;;;;;;1.30;0.80;;;8.80;99.90;;;;;;5000140;28;20432;-77